Althea — 9HAQ7 — position and weather

sailwx.info

Track history (hours):
 
Tides and Currents Weather Stations Pressure Air Temp Water Temp Dewpoint Dewpoint Depression Visibility Wind Speed Wind Dir Waves Ship Positions

Althea

Last reported at 2014-Nov-27 13:33 UTC. Time now 2014-Nov-27 14:27 UTC.
Position N 37°53' E 023°33'.

Length 170 m; draft 9.7 m.

Type: Cargo ship. MMSI: 215047000.

Date/timePositionNaut miles runAvg speedWind from/ knotsBaromVisibWave heightAir tempDewpointWater temp
2014-Nov-27 13:33N 37°53' E 023°33'0 0.0
2014-Nov-27 12:31N 37°53' E 023°33'0 0.1
2014-Nov-27 11:31N 37°53' E 023°33'0 0.0
2014-Nov-27 10:31N 37°53' E 023°33'0 0.0
2014-Nov-27 09:31N 37°53' E 023°33'0 0.0
2014-Nov-27 08:31N 37°53' E 023°33'0 0.0
2014-Nov-27 07:31N 37°53' E 023°33'0 0.0
2014-Nov-27 06:31N 37°53' E 023°33'0 0.0
2014-Nov-27 05:31N 37°53' E 023°33'0 0.0
2014-Nov-27 04:31N 37°53' E 023°33'0 0.0
2014-Nov-27 03:31N 37°53' E 023°33'0 0.0
2014-Nov-27 02:31N 37°53' E 023°33'0 0.0
2014-Nov-27 01:31N 37°53' E 023°33'0 0.0
2014-Nov-27 00:31N 37°53' E 023°33'4 3.8
2014-Nov-26 23:34N 37°52' E 023°38'1212.1
2014-Nov-26 22:33N 37°41' E 023°45'1612.2
2014-Nov-26 21:14N 37°37' E 024°04'913.1
2014-Nov-26 20:31N 37°42' E 024°14'1713.6
2014-Nov-26 19:15N 37°52' E 024°32'26512.1
2014-Nov-25 21:17N 40°54' E 028°42'1112.4
2014-Nov-25 20:25N 40°57' E 028°55'13 9.9
2014-Nov-25 19:04N 41°08' E 029°04'810.1
2014-Nov-25 18:19N 41°15' E 029°08'1012.4
2014-Nov-25 17:30N 41°25' E 029°11'32911.4
2014-Nov-24 12:32N 46°36' E 031°43'9 8.9
2014-Nov-24 11:33N 46°38' E 031°55'8 8.2
2014-Nov-24 10:33N 46°47' E 031°53'9 9.1
2014-Nov-24 09:33N 46°54' E 032°01'3 2.6
2014-Nov-24 08:31N 46°57' E 031°59'0 0.0
2014-Nov-24 07:31N 46°57' E 031°59'0 0.0
2014-Nov-24 06:31N 46°57' E 031°59'0 0.0
2014-Nov-24 05:31N 46°57' E 031°59'0 0.0
2014-Nov-24 04:28N 46°57' E 031°59'0 0.0
2014-Nov-24 03:28N 46°57' E 031°59'0 0.0
2014-Nov-24 02:31N 46°57' E 031°59'0 0.0
2014-Nov-24 01:31N 46°57' E 031°59'0 0.0
2014-Nov-24 00:31N 46°57' E 031°59'0 0.0
2014-Nov-23 23:31N 46°57' E 031°59'0 0.0
2014-Nov-23 22:31N 46°57' E 031°59'0 0.0
2014-Nov-23 21:31N 46°57' E 031°59'0 0.0
2014-Nov-23 18:31N 46°57' E 031°59'0 0.0
2014-Nov-23 17:31N 46°57' E 031°59'0 0.0
2014-Nov-23 16:31N 46°57' E 031°59'0 0.0
2014-Nov-23 15:31N 46°57' E 031°59'0 0.0
2014-Nov-23 14:31N 46°57' E 031°59'0 0.0
2014-Nov-23 13:31N 46°57' E 031°59'0 0.0
2014-Nov-23 12:31N 46°57' E 031°59'0 0.0
2014-Nov-23 11:31N 46°57' E 031°59'0 0.0
2014-Nov-23 10:31N 46°57' E 031°59'0 0.0
2014-Nov-23 09:31N 46°57' E 031°59'0 0.0
2014-Nov-23 08:31N 46°57' E 031°59'0 0.0
2014-Nov-23 07:31N 46°57' E 031°59'0 0.0
2014-Nov-23 06:31N 46°57' E 031°59'0 0.0
2014-Nov-23 05:31N 46°57' E 031°59'0 0.0
2014-Nov-23 04:31N 46°57' E 031°59'0 0.0
2014-Nov-23 03:31N 46°57' E 031°59'0 0.0
2014-Nov-23 02:31N 46°57' E 031°59'0 0.0
2014-Nov-23 01:31N 46°57' E 031°59'0 0.0
2014-Nov-23 00:31N 46°57' E 031°59'0 0.0
2014-Nov-22 23:31N 46°57' E 031°59'0 0.0
2014-Nov-22 22:31N 46°57' E 031°59'0 0.0
2014-Nov-22 21:28N 46°57' E 031°59'0 0.0
2014-Nov-22 20:31N 46°57' E 031°59'0 0.0
2014-Nov-22 19:31N 46°57' E 031°59'0 0.0
2014-Nov-22 18:31N 46°57' E 031°59'0 0.0
2014-Nov-22 17:28N 46°57' E 031°59'0 0.0
2014-Nov-22 16:31N 46°57' E 031°59'0 0.0
2014-Nov-22 15:31N 46°57' E 031°59'0 0.0
2014-Nov-22 14:31N 46°57' E 031°59'0 0.0
2014-Nov-22 13:31N 46°57' E 031°59'0 0.0
2014-Nov-22 12:31N 46°57' E 031°59'0 0.0
2014-Nov-22 11:28N 46°57' E 031°59'0 0.0
2014-Nov-22 10:31N 46°57' E 031°59'0 0.0
2014-Nov-22 09:31N 46°57' E 031°59'0 0.0
2014-Nov-22 08:31N 46°57' E 031°59'0 0.0
2014-Nov-22 07:31N 46°57' E 031°59'0 0.0
2014-Nov-22 06:31N 46°57' E 031°59'0 0.0
2014-Nov-22 05:28N 46°57' E 031°59'0 0.0
2014-Nov-22 04:31N 46°57' E 031°59'0 0.0
2014-Nov-22 03:31N 46°57' E 031°59'0 0.0
2014-Nov-22 02:31N 46°57' E 031°59'0 0.0
2014-Nov-22 01:28N 46°57' E 031°59'0 0.0
2014-Nov-22 00:31N 46°57' E 031°59'0 0.0
2014-Nov-21 23:28N 46°57' E 031°59'0 0.0
2014-Nov-21 22:31N 46°57' E 031°59'0 0.0
2014-Nov-21 21:31N 46°57' E 031°59'0 0.0
2014-Nov-21 20:31N 46°57' E 031°59'0 0.0
2014-Nov-21 19:31N 46°57' E 031°59'0 0.0
2014-Nov-21 18:31N 46°57' E 031°59'0 0.0
2014-Nov-21 17:31N 46°57' E 031°59'0 0.0
2014-Nov-21 16:31N 46°57' E 031°59'0 0.0
2014-Nov-21 15:31N 46°57' E 031°59'0 0.0
2014-Nov-21 14:31N 46°57' E 031°59'0 0.0
2014-Nov-21 09:31N 46°57' E 031°59'0 0.0
2014-Nov-21 08:31N 46°57' E 031°59'0 0.0
2014-Nov-21 07:31N 46°57' E 031°59'0 0.0
2014-Nov-21 06:31N 46°57' E 031°59'0 0.0
2014-Nov-21 05:31N 46°57' E 031°59'0 0.0
2014-Nov-21 04:31N 46°57' E 031°59'0 0.0
2014-Nov-21 03:31N 46°57' E 031°59'0 0.0
2014-Nov-21 02:31N 46°57' E 031°59'0 0.0
2014-Nov-21 01:31N 46°57' E 031°59'0 0.0
2014-Nov-21 00:31N 46°57' E 031°59'0 0.0
2014-Nov-20 23:31N 46°57' E 031°59'0 0.0
2014-Nov-20 22:31N 46°57' E 031°59'0 0.0
2014-Nov-20 21:31N 46°57' E 031°59'0 0.0
2014-Nov-20 20:31N 46°57' E 031°59'0 0.0
2014-Nov-20 19:31N 46°57' E 031°59'0 0.0
2014-Nov-20 18:31N 46°57' E 031°59'0 0.0
2014-Nov-20 17:31N 46°57' E 031°59'0 0.0
2014-Nov-20 16:31N 46°57' E 031°59'0 0.0
2014-Nov-20 15:31N 46°57' E 031°59'0 0.0
2014-Nov-20 14:31N 46°57' E 031°59'0 0.0
2014-Nov-20 13:31N 46°57' E 031°59'0 0.0
2014-Nov-20 12:31N 46°57' E 031°59'0 0.0
2014-Nov-20 11:28N 46°57' E 031°59'0 0.0
2014-Nov-20 10:31N 46°57' E 031°59'0 0.0
2014-Nov-20 09:31N 46°57' E 031°59'0 0.0
2014-Nov-20 08:31N 46°57' E 031°59'0 0.0
2014-Nov-20 07:31N 46°57' E 031°59'0 0.0
2014-Nov-20 06:31N 46°57' E 031°59'0 0.0
2014-Nov-20 05:31N 46°57' E 031°59'0 0.0
2014-Nov-20 04:31N 46°57' E 031°59'0 0.0
2014-Nov-20 03:31N 46°57' E 031°59'0 0.0
2014-Nov-20 02:31N 46°57' E 031°59'0 0.0
2014-Nov-20 01:31N 46°57' E 031°59'0 0.0
2014-Nov-20 00:31N 46°57' E 031°59'0 0.0
2014-Nov-19 23:31N 46°57' E 031°59'0 0.0
2014-Nov-19 22:31N 46°57' E 031°59'0 0.0
2014-Nov-19 21:31N 46°57' E 031°59'0 0.0
2014-Nov-19 20:31N 46°57' E 031°59'0 0.0
2014-Nov-19 19:31N 46°57' E 031°59'0 0.0
2014-Nov-19 18:31N 46°57' E 031°59'0 0.0
2014-Nov-19 17:28N 46°57' E 031°59'0 0.0
2014-Nov-19 16:31N 46°57' E 031°59'0 0.0
2014-Nov-19 15:31N 46°57' E 031°59'0 0.0
2014-Nov-19 14:31N 46°57' E 031°59'0 0.0
2014-Nov-19 13:28N 46°57' E 031°59'0 0.0
2014-Nov-19 12:31N 46°57' E 031°59'0 0.0
2014-Nov-19 11:33N 46°57' E 031°59'0 0.0
2014-Nov-19 10:33N 46°57' E 031°59'0 0.0
2014-Nov-19 09:33N 46°57' E 031°59'0 0.0
2014-Nov-19 08:33N 46°57' E 031°59'0 0.0
2014-Nov-19 07:33N 46°57' E 031°59'0 0.0
2014-Nov-19 06:33N 46°57' E 031°59'0 0.0
2014-Nov-19 05:33N 46°57' E 031°59'0 0.0
2014-Nov-19 04:33N 46°57' E 031°59'0 0.0
2014-Nov-19 03:33N 46°57' E 031°59'0 0.0
2014-Nov-19 02:33N 46°57' E 031°59'0 0.0
2014-Nov-19 01:33N 46°57' E 031°59'0 0.0
2014-Nov-19 00:33N 46°57' E 031°59'0 0.0
2014-Nov-18 23:33N 46°57' E 031°59'0 0.0
2014-Nov-18 22:33N 46°57' E 031°59'0 0.0
2014-Nov-18 21:33N 46°57' E 031°59'0 0.0
2014-Nov-18 20:33N 46°57' E 031°59'0 0.0
2014-Nov-18 14:06N 46°56' E 031°59'0 0.0
2014-Nov-18 13:33N 46°57' E 031°59'0 0.0
2014-Nov-18 12:33N 46°57' E 031°59'0 0.0
2014-Nov-18 11:33N 46°57' E 031°59'0 0.0
2014-Nov-18 10:33N 46°57' E 031°59'2 1.7
2014-Nov-18 09:34N 46°56' E 032°01'1111.0
2014-Nov-18 08:33N 46°46' E 031°53'10 9.8
2014-Nov-18 07:33N 46°36' E 031°50'1211.8
2014-Nov-18 06:32N 46°35' E 031°33'  
Track history (hours):
 
Tides and Currents Weather Stations Pressure Air Temp Water Temp Dewpoint Dewpoint Depression Visibility Wind Speed Wind Dir Waves Ship Positions

Althea

Last reported at 2014-Nov-27 13:33 UTC. Time now 2014-Nov-27 14:27 UTC.
Position N 37°53' E 023°33'.

Length 170 m; draft 9.7 m.

Type: Cargo ship. MMSI: 215047000.

Date/timePositionNaut miles runAvg speedWind from/ knotsBaromVisibWave heightAir tempDewpointWater temp
2014-Nov-27 13:33N 37°53' E 023°33'0 0.0
2014-Nov-27 12:31N 37°53' E 023°33'0 0.1
2014-Nov-27 11:31N 37°53' E 023°33'0 0.0
2014-Nov-27 10:31N 37°53' E 023°33'0 0.0
2014-Nov-27 09:31N 37°53' E 023°33'0 0.0
2014-Nov-27 08:31N 37°53' E 023°33'0 0.0
2014-Nov-27 07:31N 37°53' E 023°33'0 0.0
2014-Nov-27 06:31N 37°53' E 023°33'0 0.0
2014-Nov-27 05:31N 37°53' E 023°33'0 0.0
2014-Nov-27 04:31N 37°53' E 023°33'0 0.0
2014-Nov-27 03:31N 37°53' E 023°33'0 0.0
2014-Nov-27 02:31N 37°53' E 023°33'0 0.0
2014-Nov-27 01:31N 37°53' E 023°33'0 0.0
2014-Nov-27 00:31N 37°53' E 023°33'4 3.8
2014-Nov-26 23:34N 37°52' E 023°38'1212.1
2014-Nov-26 22:33N 37°41' E 023°45'1612.2
2014-Nov-26 21:14N 37°37' E 024°04'913.1
2014-Nov-26 20:31N 37°42' E 024°14'1713.6
2014-Nov-26 19:15N 37°52' E 024°32'26512.1
2014-Nov-25 21:17N 40°54' E 028°42'1112.4
2014-Nov-25 20:25N 40°57' E 028°55'13 9.9
2014-Nov-25 19:04N 41°08' E 029°04'810.1
2014-Nov-25 18:19N 41°15' E 029°08'1012.4
2014-Nov-25 17:30N 41°25' E 029°11'32911.4
2014-Nov-24 12:32N 46°36' E 031°43'9 8.9
2014-Nov-24 11:33N 46°38' E 031°55'8 8.2
2014-Nov-24 10:33N 46°47' E 031°53'9 9.1
2014-Nov-24 09:33N 46°54' E 032°01'3 2.6
2014-Nov-24 08:31N 46°57' E 031°59'0 0.0
2014-Nov-24 07:31N 46°57' E 031°59'0 0.0
2014-Nov-24 06:31N 46°57' E 031°59'0 0.0
2014-Nov-24 05:31N 46°57' E 031°59'0 0.0
2014-Nov-24 04:28N 46°57' E 031°59'0 0.0
2014-Nov-24 03:28N 46°57' E 031°59'0 0.0
2014-Nov-24 02:31N 46°57' E 031°59'0 0.0
2014-Nov-24 01:31N 46°57' E 031°59'0 0.0
2014-Nov-24 00:31N 46°57' E 031°59'0 0.0
2014-Nov-23 23:31N 46°57' E 031°59'0 0.0
2014-Nov-23 22:31N 46°57' E 031°59'0 0.0
2014-Nov-23 21:31N 46°57' E 031°59'0 0.0
2014-Nov-23 18:31N 46°57' E 031°59'0 0.0
2014-Nov-23 17:31N 46°57' E 031°59'0 0.0
2014-Nov-23 16:31N 46°57' E 031°59'0 0.0
2014-Nov-23 15:31N 46°57' E 031°59'0 0.0
2014-Nov-23 14:31N 46°57' E 031°59'0 0.0
2014-Nov-23 13:31N 46°57' E 031°59'0 0.0
2014-Nov-23 12:31N 46°57' E 031°59'0 0.0
2014-Nov-23 11:31N 46°57' E 031°59'0 0.0
2014-Nov-23 10:31N 46°57' E 031°59'0 0.0
2014-Nov-23 09:31N 46°57' E 031°59'0 0.0
2014-Nov-23 08:31N 46°57' E 031°59'0 0.0
2014-Nov-23 07:31N 46°57' E 031°59'0 0.0
2014-Nov-23 06:31N 46°57' E 031°59'0 0.0
2014-Nov-23 05:31N 46°57' E 031°59'0 0.0
2014-Nov-23 04:31N 46°57' E 031°59'0 0.0
2014-Nov-23 03:31N 46°57' E 031°59'0 0.0
2014-Nov-23 02:31N 46°57' E 031°59'0 0.0
2014-Nov-23 01:31N 46°57' E 031°59'0 0.0
2014-Nov-23 00:31N 46°57' E 031°59'0 0.0
2014-Nov-22 23:31N 46°57' E 031°59'0 0.0
2014-Nov-22 22:31N 46°57' E 031°59'0 0.0
2014-Nov-22 21:28N 46°57' E 031°59'0 0.0
2014-Nov-22 20:31N 46°57' E 031°59'0 0.0
2014-Nov-22 19:31N 46°57' E 031°59'0 0.0
2014-Nov-22 18:31N 46°57' E 031°59'0 0.0
2014-Nov-22 17:28N 46°57' E 031°59'0 0.0
2014-Nov-22 16:31N 46°57' E 031°59'0 0.0
2014-Nov-22 15:31N 46°57' E 031°59'0 0.0
2014-Nov-22 14:31N 46°57' E 031°59'0 0.0
2014-Nov-22 13:31N 46°57' E 031°59'0 0.0
2014-Nov-22 12:31N 46°57' E 031°59'0 0.0
2014-Nov-22 11:28N 46°57' E 031°59'0 0.0
2014-Nov-22 10:31N 46°57' E 031°59'0 0.0
2014-Nov-22 09:31N 46°57' E 031°59'0 0.0
2014-Nov-22 08:31N 46°57' E 031°59'0 0.0
2014-Nov-22 07:31N 46°57' E 031°59'0 0.0
2014-Nov-22 06:31N 46°57' E 031°59'0 0.0
2014-Nov-22 05:28N 46°57' E 031°59'0 0.0
2014-Nov-22 04:31N 46°57' E 031°59'0 0.0
2014-Nov-22 03:31N 46°57' E 031°59'0 0.0
2014-Nov-22 02:31N 46°57' E 031°59'0 0.0
2014-Nov-22 01:28N 46°57' E 031°59'0 0.0
2014-Nov-22 00:31N 46°57' E 031°59'0 0.0
2014-Nov-21 23:28N 46°57' E 031°59'0 0.0
2014-Nov-21 22:31N 46°57' E 031°59'0 0.0
2014-Nov-21 21:31N 46°57' E 031°59'0 0.0
2014-Nov-21 20:31N 46°57' E 031°59'0 0.0
2014-Nov-21 19:31N 46°57' E 031°59'0 0.0
2014-Nov-21 18:31N 46°57' E 031°59'0 0.0
2014-Nov-21 17:31N 46°57' E 031°59'0 0.0
2014-Nov-21 16:31N 46°57' E 031°59'0 0.0
2014-Nov-21 15:31N 46°57' E 031°59'0 0.0
2014-Nov-21 14:31N 46°57' E 031°59'0 0.0
2014-Nov-21 09:31N 46°57' E 031°59'0 0.0
2014-Nov-21 08:31N 46°57' E 031°59'0 0.0
2014-Nov-21 07:31N 46°57' E 031°59'0 0.0
2014-Nov-21 06:31N 46°57' E 031°59'0 0.0
2014-Nov-21 05:31N 46°57' E 031°59'0 0.0
2014-Nov-21 04:31N 46°57' E 031°59'0 0.0
2014-Nov-21 03:31N 46°57' E 031°59'0 0.0
2014-Nov-21 02:31N 46°57' E 031°59'0 0.0
2014-Nov-21 01:31N 46°57' E 031°59'0 0.0
2014-Nov-21 00:31N 46°57' E 031°59'0 0.0
2014-Nov-20 23:31N 46°57' E 031°59'0 0.0
2014-Nov-20 22:31N 46°57' E 031°59'0 0.0
2014-Nov-20 21:31N 46°57' E 031°59'0 0.0
2014-Nov-20 20:31N 46°57' E 031°59'0 0.0
2014-Nov-20 19:31N 46°57' E 031°59'0 0.0
2014-Nov-20 18:31N 46°57' E 031°59'0 0.0
2014-Nov-20 17:31N 46°57' E 031°59'0 0.0
2014-Nov-20 16:31N 46°57' E 031°59'0 0.0
2014-Nov-20 15:31N 46°57' E 031°59'0 0.0
2014-Nov-20 14:31N 46°57' E 031°59'0 0.0
2014-Nov-20 13:31N 46°57' E 031°59'0 0.0
2014-Nov-20 12:31N 46°57' E 031°59'0 0.0
2014-Nov-20 11:28N 46°57' E 031°59'0 0.0
2014-Nov-20 10:31N 46°57' E 031°59'0 0.0
2014-Nov-20 09:31N 46°57' E 031°59'0 0.0
2014-Nov-20 08:31N 46°57' E 031°59'0 0.0
2014-Nov-20 07:31N 46°57' E 031°59'0 0.0
2014-Nov-20 06:31N 46°57' E 031°59'0 0.0
2014-Nov-20 05:31N 46°57' E 031°59'0 0.0
2014-Nov-20 04:31N 46°57' E 031°59'0 0.0
2014-Nov-20 03:31N 46°57' E 031°59'0 0.0
2014-Nov-20 02:31N 46°57' E 031°59'0 0.0
2014-Nov-20 01:31N 46°57' E 031°59'0 0.0
2014-Nov-20 00:31N 46°57' E 031°59'0 0.0
2014-Nov-19 23:31N 46°57' E 031°59'0 0.0
2014-Nov-19 22:31N 46°57' E 031°59'0 0.0
2014-Nov-19 21:31N 46°57' E 031°59'0 0.0
2014-Nov-19 20:31N 46°57' E 031°59'0 0.0
2014-Nov-19 19:31N 46°57' E 031°59'0 0.0
2014-Nov-19 18:31N 46°57' E 031°59'0 0.0
2014-Nov-19 17:28N 46°57' E 031°59'0 0.0
2014-Nov-19 16:31N 46°57' E 031°59'0 0.0
2014-Nov-19 15:31N 46°57' E 031°59'0 0.0
2014-Nov-19 14:31N 46°57' E 031°59'0 0.0
2014-Nov-19 13:28N 46°57' E 031°59'0 0.0
2014-Nov-19 12:31N 46°57' E 031°59'0 0.0
2014-Nov-19 11:33N 46°57' E 031°59'0 0.0
2014-Nov-19 10:33N 46°57' E 031°59'0 0.0
2014-Nov-19 09:33N 46°57' E 031°59'0 0.0
2014-Nov-19 08:33N 46°57' E 031°59'0 0.0
2014-Nov-19 07:33N 46°57' E 031°59'0 0.0
2014-Nov-19 06:33N 46°57' E 031°59'0 0.0
2014-Nov-19 05:33N 46°57' E 031°59'0 0.0
2014-Nov-19 04:33N 46°57' E 031°59'0 0.0
2014-Nov-19 03:33N 46°57' E 031°59'0 0.0
2014-Nov-19 02:33N 46°57' E 031°59'0 0.0
2014-Nov-19 01:33N 46°57' E 031°59'0 0.0
2014-Nov-19 00:33N 46°57' E 031°59'0 0.0
2014-Nov-18 23:33N 46°57' E 031°59'0 0.0
2014-Nov-18 22:33N 46°57' E 031°59'0 0.0
2014-Nov-18 21:33N 46°57' E 031°59'0 0.0
2014-Nov-18 20:33N 46°57' E 031°59'0 0.0
2014-Nov-18 14:06N 46°56' E 031°59'0 0.0
2014-Nov-18 13:33N 46°57' E 031°59'0 0.0
2014-Nov-18 12:33N 46°57' E 031°59'0 0.0
2014-Nov-18 11:33N 46°57' E 031°59'0 0.0
2014-Nov-18 10:33N 46°57' E 031°59'2 1.7
2014-Nov-18 09:34N 46°56' E 032°01'1111.0
2014-Nov-18 08:33N 46°46' E 031°53'10 9.8
2014-Nov-18 07:33N 46°36' E 031°50'1211.8
2014-Nov-18 06:32N 46°35' E 031°33'  

Dump ship's entire track history